Ontario Center, New York
Current Conditions -  °F | °C
As of 2:54 AM on Wednesday 22 Oct 2014 (Local Time) from KROC Reporting Station
Overcast Overcast  
Wind Chill: 42°   Ceiling: 1300
Heat Index: 48°   Visibility: 10mi
Dew Point: 43°   Wind: 17mph
Humidity: 83%   Direction: 40°NE
Pressure: 30.09"   Gusts: 24mph
Location:  43.23°N, 77.31°W
Report Text: KROC 220654Z 04015G21KT 10SM OVC013 09/06 A3009 RMK AO2 SLP194 T00890061
Loading
Personal Weather Stations






























Interactive Weather Map
Tropical Storm Tracking
New forecast layout! Learn more

10-Day Weather Forecast

Advertisements
Track Severe Weather on mobile